Time;durP1;ratioP1;P1;durP2;ratioP2;P2;SDS_P1;SDS_P2;PMS_P1;PMS_P2;Temp;Humidity;BMP_temperature;BMP_pressure;BME280_temperature;BME280_humidity;BME280_pressure;Samples;Min_cycle;Max_cycle;Signal;HPM_P1;HPM_P2
2023/07/20 00:01:30;;;;;;;6.82;2.22;;;;;;;22.66;63.78;94270.06;5071342;28;20227;-78
2023/07/20 00:03:57;;;;;;;9.43;1.92;;;;;;;22.63;64.07;94278.38;5070802;28;20203;-77
2023/07/20 00:06:27;;;;;;;5.30;2.00;;;;;;;22.62;64.05;94272.06;5070964;28;20645;-77
2023/07/20 00:08:55;;;;;;;6.75;2.20;;;;;;;22.54;64.75;94270.63;5070826;28;20230;-76
2023/07/20 00:11:23;;;;;;;6.45;2.28;;;;;;;22.47;65.13;94267.91;5070960;28;20214;-78
2023/07/20 00:13:49;;;;;;;2.92;1.73;;;;;;;22.37;65.10;94263.31;5071262;28;20202;-78
2023/07/20 00:16:16;;;;;;;4.95;1.70;;;;;;;22.38;65.40;94262.13;5071588;28;20203;-78
2023/07/20 00:18:43;;;;;;;5.72;2.13;;;;;;;22.49;63.84;94262.78;5071646;28;20662;-78
2023/07/20 00:21:10;;;;;;;3.70;1.70;;;;;;;22.41;64.04;94269.59;5071508;28;20235;-79
2023/07/20 00:23:37;;;;;;;3.00;2.05;;;;;;;22.34;64.23;94278.72;5071794;28;20194;-78
2023/07/20 00:26:05;;;;;;;4.18;1.75;;;;;;;22.36;64.39;94278.31;5064330;28;20293;-78
2023/07/20 00:28:32;;;;;;;9.02;2.00;;;;;;;22.33;63.78;94279.13;5070601;28;20736;-78
2023/07/20 00:31:00;;;;;;;5.40;1.77;;;;;;;22.25;64.16;94283.94;5070310;28;20759;-79
2023/07/20 00:33:27;;;;;;;4.90;2.30;;;;;;;22.27;64.06;94269.75;5069745;28;20736;-77
2023/07/20 00:35:54;;;;;;;5.05;1.77;;;;;;;22.31;64.31;94270.47;5070216;28;20203;-78
2023/07/20 00:38:21;;;;;;;11.63;2.38;;;;;;;22.18;65.00;94272.97;5070730;28;20318;-78
2023/07/20 00:40:49;;;;;;;6.30;1.70;;;;;;;22.18;65.25;94272.19;5070629;28;20213;-78
2023/07/20 00:43:17;;;;;;;10.73;2.30;;;;;;;22.22;65.59;94273.72;5070446;28;20203;-78
2023/07/20 00:45:45;;;;;;;9.30;2.05;;;;;;;22.04;66.44;94256.56;5070549;28;20253;-78
2023/07/20 00:48:12;;;;;;;8.10;2.55;;;;;;;22.08;66.34;94256.53;5070333;28;20214;-79
2023/07/20 00:50:41;;;;;;;5.93;2.25;;;;;;;22.03;66.93;94256.97;5069927;28;20208;-77
2023/07/20 00:53:08;;;;;;;5.47;1.98;;;;;;;21.86;68.01;94266.97;5069822;28;20562;-78
2023/07/20 00:55:35;;;;;;;7.47;1.83;;;;;;;21.63;68.08;94260.06;5069932;28;20211;-77
2023/07/20 00:58:02;;;;;;;6.53;1.95;;;;;;;21.75;67.60;94253.25;5069827;28;20210;-78
2023/07/20 01:00:31;;;;;;;7.57;2.13;;;;;;;21.85;68.06;94252.41;5071017;28;20206;-77
2023/07/20 01:02:57;;;;;;;4.97;2.00;;;;;;;21.72;69.47;94251.34;5067737;28;20246;-77
2023/07/20 01:05:34;;;;;;;4.28;2.00;;;;;;;21.50;69.79;94260.97;5069482;28;20655;-77
2023/07/20 01:08:04;;;;;;;6.57;1.83;;;;;;;21.21;70.78;94255.66;5069809;28;20282;-78
2023/07/20 01:10:39;;;;;;;5.00;1.95;;;;;;;21.14;71.06;94254.91;5069700;28;20662;-77
2023/07/20 01:13:08;;;;;;;5.95;2.00;;;;;;;21.15;71.02;94265.53;5069580;28;20199;-77
2023/07/20 01:15:36;;;;;;;4.97;1.95;;;;;;;21.11;72.02;94277.75;5070006;28;20207;-75
2023/07/20 01:18:04;;;;;;;5.95;1.88;;;;;;;21.00;72.86;94277.03;5069661;28;20218;-78
2023/07/20 01:20:34;;;;;;;5.53;2.05;;;;;;;20.89;74.02;94282.63;5069809;28;20229;-78
2023/07/20 01:23:39;;;;;;;4.88;1.95;;;;;;;20.73;74.55;94268.53;5069994;28;20223;-78
2023/07/20 01:26:22;;;;;;;5.55;2.10;;;;;;;20.75;75.36;94277.19;5051849;28;20260;-78
2023/07/20 01:29:09;;;;;;;4.97;1.90;;;;;;;20.79;74.65;94272.41;5069533;28;20199;-78
2023/07/20 01:31:39;;;;;;;7.85;2.40;;;;;;;20.70;75.37;94274.84;5069271;28;20661;-78
2023/07/20 01:34:09;;;;;;;4.70;2.00;;;;;;;20.72;74.70;94266.97;5069059;28;20624;-78
2023/07/20 01:36:38;;;;;;;7.45;2.03;;;;;;;20.76;75.76;94276.00;5068762;28;20223;-79
2023/07/20 01:39:07;;;;;;;6.90;2.22;;;;;;;20.55;76.57;94272.16;5069099;28;20206;-77
2023/07/20 01:41:35;;;;;;;3.55;1.98;;;;;;;20.42;77.37;94282.03;5068753;28;20235;-78
2023/07/20 01:44:02;;;;;;;4.18;1.88;;;;;;;20.39;78.24;94282.81;5069336;28;20210;-76
2023/07/20 01:46:28;;;;;;;7.35;2.03;;;;;;;20.39;78.80;94269.06;5068912;28;20293;-77
2023/07/20 01:48:57;;;;;;;9.23;2.55;;;;;;;20.24;79.39;94275.75;5057643;28;20203;-77
2023/07/20 01:51:24;;;;;;;6.00;2.10;;;;;;;20.10;80.30;94264.78;5068983;28;20209;-77
2023/07/20 01:53:50;;;;;;;4.47;2.10;;;;;;;20.12;80.38;94268.72;5068462;28;20642;-78
2023/07/20 01:56:17;;;;;;;3.88;1.80;;;;;;;20.07;81.13;94271.09;5069067;28;20207;-77
2023/07/20 01:58:44;;;;;;;13.68;2.38;;;;;;;20.13;80.97;94277.75;5068799;28;20688;-77
2023/07/20 02:01:11;;;;;;;6.38;2.53;;;;;;;20.08;80.86;94265.22;5069856;28;20646;-77
2023/07/20 02:03:38;;;;;;;5.75;2.08;;;;;;;20.06;81.11;94269.53;5068983;28;20824;-79
2023/07/20 02:06:06;;;;;;;7.20;2.08;;;;;;;19.97;81.86;94263.66;5068886;28;20203;-78
2023/07/20 02:08:33;;;;;;;4.22;2.20;;;;;;;20.00;81.62;94260.09;5068128;28;20731;-78
2023/07/20 02:11:00;;;;;;;4.40;1.95;;;;;;;19.88;82.09;94264.84;5068969;28;20203;-78
2023/07/20 02:13:26;;;;;;;4.38;2.13;;;;;;;19.84;82.17;94255.81;5069048;28;20214;-78
2023/07/20 02:15:53;;;;;;;3.50;2.20;;;;;;;19.86;82.42;94255.44;5068619;28;20222;-78
2023/07/20 02:18:20;;;;;;;6.43;2.17;;;;;;;19.94;82.57;94256.22;5068888;28;20207;-78
2023/07/20 02:20:47;;;;;;;3.42;1.50;;;;;;;20.02;81.62;94257.75;5067459;28;20211;-78
2023/07/20 02:23:15;;;;;;;3.95;1.70;;;;;;;20.04;81.41;94260.91;5068405;28;20258;-78
2023/07/20 02:25:43;;;;;;;3.03;1.90;;;;;;;20.07;80.65;94254.59;5068510;28;20198;-78
2023/07/20 02:28:10;;;;;;;2.97;1.83;;;;;;;20.04;80.37;94260.91;5067916;28;20213;-78
2023/07/20 02:30:39;;;;;;;3.88;1.90;;;;;;;20.07;79.61;94260.09;5067933;28;20642;-78
2023/07/20 02:33:06;;;;;;;6.38;2.42;;;;;;;20.13;79.75;94259.28;5028935;28;20208;-79
2023/07/20 02:35:33;;;;;;;6.57;2.08;;;;;;;20.06;79.92;94258.53;5028294;28;20213;-78
2023/07/20 02:38:00;;;;;;;4.00;1.90;;;;;;;20.17;79.40;94253.78;5028413;28;20228;-78
2023/07/20 02:40:28;;;;;;;5.82;1.75;;;;;;;20.23;79.08;94249.44;5028288;28;20211;-79
2023/07/20 02:42:55;;;;;;;6.55;1.95;;;;;;;20.24;78.85;94253.75;5020223;28;20240;-78
2023/07/20 02:45:22;;;;;;;7.13;1.98;;;;;;;20.30;78.83;94241.16;5028382;28;20656;-78
2023/07/20 02:47:48;;;;;;;4.47;1.75;;;;;;;20.29;79.50;94239.59;5027929;28;20579;-78
2023/07/20 02:50:15;;;;;;;7.38;2.00;;;;;;;20.29;79.36;94239.59;5027990;28;20232;-78
2023/07/20 02:52:42;;;;;;;7.57;2.55;;;;;;;20.30;80.07;94230.16;5028473;28;20282;-78
2023/07/20 02:55:10;;;;;;;3.80;2.10;;;;;;;20.22;79.84;94231.38;5028125;28;20220;-78
2023/07/20 02:57:38;;;;;;;6.93;1.88;;;;;;;20.24;78.71;94231.75;5027086;28;20197;-79
2023/07/20 03:00:07;;;;;;;5.82;2.40;;;;;;;20.23;78.98;94230.97;5029622;28;20207;-78
2023/07/20 03:02:33;;;;;;;5.43;1.85;;;;;;;20.27;79.18;94236.44;5027608;28;20436;-78
2023/07/20 03:05:01;;;;;;;5.35;2.33;;;;;;;20.22;78.99;94232.16;5028246;28;20215;-78
2023/07/20 03:07:29;;;;;;;4.93;1.85;;;;;;;20.23;78.72;94230.16;5028256;28;20208;-78
2023/07/20 03:09:56;;;;;;;5.57;1.73;;;;;;;20.23;78.89;94235.69;5028218;28;20213;-78
2023/07/20 03:12:24;;;;;;;7.28;2.65;;;;;;;20.29;78.89;94238.81;5027676;28;20267;-79
2023/07/20 03:14:52;;;;;;;9.00;2.28;;;;;;;20.36;78.70;94245.13;5028097;28;20588;-78
2023/07/20 03:17:20;;;;;;;4.35;2.78;;;;;;;20.44;78.38;94238.38;5027892;28;20204;-78
2023/07/20 03:19:47;;;;;;;2.97;1.90;;;;;;;20.55;77.88;94250.13;5027529;28;20303;-79
2023/07/20 03:22:14;;;;;;;2.47;1.55;;;;;;;20.65;77.73;94255.97;5027482;28;20231;-78
2023/07/20 03:24:40;;;;;;;12.18;2.40;;;;;;;20.77;77.52;94250.03;5027607;28;20215;-78
2023/07/20 03:27:07;;;;;;;3.50;1.80;;;;;;;21.00;77.05;94244.78;5027740;28;20204;-78
2023/07/20 03:29:35;;;;;;;3.42;2.03;;;;;;;21.32;76.24;94249.31;5027551;28;20208;-78
2023/07/20 03:32:03;;;;;;;5.07;2.03;;;;;;;21.67;74.94;94249.00;5050100;28;20238;-78
2023/07/20 03:34:30;;;;;;;8.48;2.55;;;;;;;22.00;74.20;94244.03;5067401;28;20575;-78
2023/07/20 03:36:56;;;;;;;7.10;2.13;;;;;;;22.31;72.53;94243.66;5067479;28;20218;-78
2023/07/20 03:39:23;;;;;;;6.25;2.17;;;;;;;22.77;71.27;94241.56;5067777;28;20215;-78
2023/07/20 03:41:50;;;;;;;4.13;2.15;;;;;;;23.14;69.53;94238.66;5066982;28;20226;-78
2023/07/20 03:44:17;;;;;;;7.22;2.60;;;;;;;23.60;68.16;94237.19;5067772;28;20207;-76
2023/07/20 03:46:45;;;;;;;4.68;2.28;;;;;;;23.96;66.71;94238.13;5067857;28;20211;-78
2023/07/20 03:49:13;;;;;;;6.97;2.42;;;;;;;24.04;65.96;94245.13;5067642;28;20203;-78
2023/07/20 03:51:40;;;;;;;6.10;1.88;;;;;;;24.43;64.52;94246.38;5067501;28;20207;-78
2023/07/20 03:54:07;;;;;;;5.68;2.22;;;;;;;25.02;62.99;94246.34;5067594;28;20206;-78
2023/07/20 03:56:35;;;;;;;7.38;2.28;;;;;;;24.94;62.37;94246.94;5067598;28;20199;-78
2023/07/20 03:59:02;;;;;;;4.70;2.40;;;;;;;25.77;60.41;94239.88;5067514;28;20207;-79
2023/07/20 04:01:29;;;;;;;5.00;2.38;;;;;;;26.23;58.93;94237.13;5068716;28;20292;-79
2023/07/20 04:03:56;;;;;;;8.20;2.70;;;;;;;26.79;57.12;94238.31;5066943;28;20219;-79
2023/07/20 04:06:24;;;;;;;4.75;2.72;;;;;;;27.10;56.26;94248.97;5068335;28;20207;-79
2023/07/20 04:08:51;;;;;;;6.93;2.80;;;;;;;27.79;54.67;94238.09;5067944;28;20650;-79
2023/07/20 04:11:17;;;;;;;5.88;2.50;;;;;;;27.60;54.37;94231.56;5069815;28;20203;-79
2023/07/20 04:13:44;;;;;;;3.75;2.60;;;;;;;27.45;55.33;94220.06;5070670;28;20203;-79
2023/07/20 04:16:11;;;;;;;13.07;2.83;;;;;;;27.83;53.46;94224.84;5071460;28;20213;-77
2023/07/20 04:18:38;;;;;;;8.10;2.17;;;;;;;28.39;52.14;94221.34;5069884;28;20206;-75
2023/07/20 04:21:05;;;;;;;4.95;2.47;;;;;;;28.20;52.49;94218.41;5070761;28;20643;-78
2023/07/20 04:23:33;;;;;;;6.80;2.40;;;;;;;28.53;51.73;94220.84;5071052;28;20230;-77
2023/07/20 04:26:00;;;;;;;11.82;3.20;;;;;;;27.17;54.64;94232.09;5070211;28;20734;-77
2023/07/20 04:28:26;;;;;;;8.98;2.65;;;;;;;26.72;55.81;94224.66;5070208;28;20244;-78
2023/07/20 04:30:53;;;;;;;3.92;2.20;;;;;;;27.01;55.34;94221.06;5070161;28;20264;-79
2023/07/20 04:33:20;;;;;;;5.57;2.40;;;;;;;27.38;54.89;94225.84;5070436;28;20286;-79
2023/07/20 04:35:52;;;;;;;6.05;2.78;;;;;;;27.79;53.91;94222.16;5070059;28;20206;-78
2023/07/20 04:38:19;;;;;;;7.28;2.60;;;;;;;28.40;51.90;94220.13;5070627;28;20222;-79
2023/07/20 04:40:50;;;;;;;7.82;2.63;;;;;;;28.71;51.11;94212.59;5070653;28;20195;-80
2023/07/20 04:43:17;;;;;;;5.25;2.45;;;;;;;28.80;50.47;94209.13;5070311;28;20231;-77
2023/07/20 04:45:44;;;;;;;6.93;2.63;;;;;;;28.70;50.21;94205.47;5061611;28;20729;-80
2023/07/20 04:48:12;;;;;;;11.90;2.90;;;;;;;29.41;49.24;94213.16;5066536;28;20203;-79
2023/07/20 04:50:39;;;;;;;7.45;3.30;;;;;;;29.30;49.30;94214.34;5069877;28;20726;-79
2023/07/20 04:53:06;;;;;;;7.05;2.70;;;;;;;29.72;48.44;94204.75;5070532;28;20256;-79
2023/07/20 04:55:34;;;;;;;7.65;3.25;;;;;;;30.95;46.32;94198.63;5070308;28;20576;-80
2023/07/20 04:58:03;;;;;;;5.32;2.55;;;;;;;30.92;45.91;94202.34;5070588;28;20203;-79
2023/07/20 05:00:30;;;;;;;5.43;2.40;;;;;;;30.60;45.54;94205.84;5071388;28;20199;-79
2023/07/20 05:02:56;;;;;;;6.60;2.60;;;;;;;30.62;44.43;94208.91;5073410;28;20225;-76
2023/07/20 05:05:23;;;;;;;6.00;3.45;;;;;;;30.38;45.09;94206.72;5082831;28;20203;-78
2023/07/20 05:07:50;;;;;;;8.88;3.50;;;;;;;30.17;45.45;94196.47;5070071;28;20248;-79
2023/07/20 05:10:17;;;;;;;9.45;3.35;;;;;;;30.68;45.01;94201.47;5070228;28;20551;-78
2023/07/20 05:12:44;;;;;;;13.35;4.20;;;;;;;30.38;44.86;94203.94;5070480;28;20211;-79
2023/07/20 05:15:12;;;;;;;10.20;3.63;;;;;;;31.68;42.95;94204.00;5070355;28;20653;-79
2023/07/20 05:17:39;;;;;;;13.50;3.50;;;;;;;32.00;41.41;94210.03;5069689;28;20208;-78
2023/07/20 05:20:09;;;;;;;6.70;3.45;;;;;;;32.45;40.78;94198.53;5069892;28;20203;-79
2023/07/20 05:22:39;;;;;;;7.80;3.42;;;;;;;32.22;40.35;94210.56;5070314;28;20227;-79
2023/07/20 05:25:07;;;;;;;5.03;2.78;;;;;;;32.85;38.85;94208.50;5069459;28;20195;-78
2023/07/20 05:27:34;;;;;;;7.15;2.90;;;;;;;33.28;38.49;94203.41;5069090;28;20481;-79
2023/07/20 05:30:01;;;;;;;9.57;3.13;;;;;;;33.30;38.77;94200.88;5069688;28;20308;-78
2023/07/20 05:32:29;;;;;;;7.38;2.42;;;;;;;34.84;35.87;94216.88;5068618;28;20247;-77
2023/07/20 05:34:56;;;;;;;9.95;3.00;;;;;;;33.79;37.69;94223.38;5061976;28;20222;-79
2023/07/20 05:37:23;;;;;;;6.40;2.95;;;;;;;35.20;35.50;94221.84;5069459;28;20219;-79
2023/07/20 05:39:50;;;;;;;10.93;3.38;;;;;;;35.23;35.47;94218.03;5069443;28;20213;-78
2023/07/20 05:42:17;;;;;;;8.55;2.90;;;;;;;36.55;33.71;94220.75;5069848;28;20274;-79
2023/07/20 05:44:44;;;;;;;9.68;3.10;;;;;;;36.44;33.51;94227.16;5069071;28;20199;-79
2023/07/20 05:47:10;;;;;;;10.55;3.20;;;;;;;36.58;33.15;94229.00;5069420;28;20268;-79
2023/07/20 05:49:38;;;;;;;8.27;2.55;;;;;;;37.34;32.08;94223.31;5068524;28;20202;-79
2023/07/20 05:52:06;;;;;;;7.43;2.67;;;;;;;37.03;32.68;94232.00;5068873;28;20218;-79
2023/07/20 05:54:33;;;;;;;6.63;2.92;;;;;;;35.32;34.64;94233.22;5069092;28;20269;-78
2023/07/20 05:57:00;;;;;;;6.85;2.53;;;;;;;35.56;33.88;94236.50;5069115;28;20206;-78
2023/07/20 05:59:29;;;;;;;7.72;2.95;;;;;;;35.21;34.22;94231.84;5070503;28;20198;-78
2023/07/20 06:01:56;;;;;;;6.50;2.92;;;;;;;36.15;33.06;94233.13;5068795;28;20662;-79
2023/07/20 06:04:22;;;;;;;8.88;3.10;;;;;;;35.26;34.62;94222.66;5066692;28;20325;-80
2023/07/20 06:06:51;;;;;;;5.85;2.65;;;;;;;35.51;34.00;94221.13;5067948;28;20199;-79
2023/07/20 06:09:17;;;;;;;3.75;2.45;;;;;;;34.48;36.03;94230.22;5068323;28;20607;-78
2023/07/20 06:11:44;;;;;;;10.15;2.63;;;;;;;35.66;33.89;94228.66;5068962;28;20195;-78
2023/07/20 06:14:11;;;;;;;7.07;2.55;;;;;;;35.56;34.09;94222.41;5068122;28;20202;-78
2023/07/20 06:16:38;;;;;;;8.02;3.05;;;;;;;36.38;33.27;94220.69;5074909;28;20202;-77
2023/07/20 06:19:04;;;;;;;5.63;2.92;;;;;;;36.67;33.53;94217.47;5069485;28;20187;-78
2023/07/20 06:21:31;;;;;;;6.53;2.75;;;;;;;35.26;35.12;94217.03;5068201;28;20199;-78
2023/07/20 06:23:59;;;;;;;7.28;2.80;;;;;;;34.91;35.30;94217.19;5068665;28;20242;-80
2023/07/20 06:26:26;;;;;;;8.07;2.78;;;;;;;35.91;34.14;94197.59;5068120;28;20203;-79
2023/07/20 06:28:53;;;;;;;6.35;2.83;;;;;;;36.57;32.94;94193.56;5068031;28;20339;-79
2023/07/20 06:31:19;;;;;;;7.38;3.60;;;;;;;35.64;33.71;94195.34;5067865;28;20223;-79
2023/07/20 06:33:46;;;;;;;9.98;3.25;;;;;;;36.12;33.41;94200.25;5065248;28;20762;-77
2023/07/20 06:36:13;;;;;;;8.95;2.67;;;;;;;37.44;31.72;94203.31;5061819;28;20280;-78
2023/07/20 06:38:40;;;;;;;10.20;3.10;;;;;;;36.19;33.15;94211.09;5067783;28;20249;-77
2023/07/20 06:41:08;;;;;;;10.57;3.55;;;;;;;35.18;34.46;94204.66;5070595;28;20684;-78
2023/07/20 06:43:35;;;;;;;8.73;3.20;;;;;;;35.62;33.82;94195.84;5067474;28;20715;-76
2023/07/20 06:46:01;;;;;;;8.77;3.30;;;;;;;35.07;34.81;94196.09;5065187;28;20195;-73
2023/07/20 06:48:28;;;;;;;9.35;3.45;;;;;;;35.42;34.12;94206.41;5067043;28;20202;-81
2023/07/20 06:50:55;;;;;;;12.43;3.90;;;;;;;34.80;35.27;94213.50;5063835;28;20207;-80
2023/07/20 06:53:24;;;;;;;11.85;3.20;;;;;;;36.09;33.49;94195.63;5067542;28;20244;-83
2023/07/20 06:55:51;;;;;;;8.25;3.30;;;;;;;36.39;32.57;94199.66;5066966;28;20563;-82
2023/07/20 06:58:21;;;;;;;11.55;4.03;;;;;;;35.93;32.96;94209.16;5068560;28;20207;-85
2023/07/20 07:00:48;;;;;;;7.55;3.08;;;;;;;37.00;31.82;94216.06;5067814;28;20634;-82
2023/07/20 07:03:15;;;;;;;5.82;2.75;;;;;;;37.65;30.32;94216.69;5067269;28;20225;-85
2023/07/20 07:05:41;;;;;;;9.88;3.00;;;;;;;35.54;31.69;94236.22;5070278;28;20279;-83
2023/07/20 07:08:08;;;;;;;11.93;3.25;;;;;;;35.86;32.73;94226.53;5067992;28;20202;-83
2023/07/20 07:10:37;;;;;;;6.28;3.28;;;;;;;34.45;34.98;94238.88;5063219;28;20558;-84
2023/07/20 07:13:03;;;;;;;8.20;3.53;;;;;;;32.62;38.81;94243.75;5067721;28;20207;-85
2023/07/20 07:15:32;;;;;;;11.95;3.42;;;;;;;29.98;44.29;94256.34;5066075;28;20651;-78
2023/07/20 07:17:59;;;;;;;8.48;3.72;;;;;;;29.73;45.20;94270.53;5067144;28;20225;-78
2023/07/20 07:20:27;;;;;;;10.48;4.50;;;;;;;29.45;46.74;94284.38;5067325;28;20218;-79
2023/07/20 07:22:55;;;;;;;12.48;3.53;;;;;;;31.24;43.67;94282.06;5071271;28;20558;-80
2023/07/20 07:25:22;;;;;;;11.13;4.70;;;;;;;31.50;42.81;94276.09;5065377;28;20195;-82
2023/07/20 07:27:49;;;;;;;12.05;4.75;;;;;;;31.19;43.22;94277.09;5065498;28;20658;-78
2023/07/20 07:30:16;;;;;;;9.52;4.25;;;;;;;31.13;43.93;94281.00;5065887;28;20199;-77
2023/07/20 07:32:44;;;;;;;10.02;3.97;;;;;;;30.26;45.47;94287.94;5066816;28;20231;-73
2023/07/20 07:35:11;;;;;;;13.85;4.68;;;;;;;29.70;47.19;94286.19;5067224;28;20195;-79
2023/07/20 07:37:38;;;;;;;9.13;3.88;;;;;;;30.53;44.20;94274.00;5067758;28;20195;-75
2023/07/20 07:40:06;;;;;;;9.93;3.90;;;;;;;31.82;43.10;94263.41;5066607;28;20207;-79
2023/07/20 07:42:33;;;;;;;11.27;4.40;;;;;;;32.65;41.17;94248.41;5067625;28;20320;-76
2023/07/20 07:45:00;;;;;;;16.30;4.53;;;;;;;31.39;43.45;94259.78;5071045;28;20326;-75
2023/07/20 07:47:27;;;;;;;9.77;4.18;;;;;;;32.32;42.29;94265.31;5070698;28;20199;-83
2023/07/20 07:49:55;;;;;;;10.45;4.72;;;;;;;32.67;42.36;94259.91;5071415;28;20720;-83
2023/07/20 07:52:22;;;;;;;11.25;4.15;;;;;;;32.08;42.03;94242.09;5070335;28;20249;-76
2023/07/20 07:54:48;;;;;;;5.50;3.33;;;;;;;32.96;41.60;94222.72;5071727;28;20198;-78
2023/07/20 07:57:15;;;;;;;8.93;3.67;;;;;;;33.83;39.86;94217.56;5071683;28;20285;-77
2023/07/20 07:59:42;;;;;;;8.63;4.25;;;;;;;32.28;42.28;94233.88;5084662;28;20202;-77
2023/07/20 08:02:09;;;;;;;11.68;4.25;;;;;;;31.90;42.32;94230.97;5070885;28;20675;-77
2023/07/20 08:04:35;;;;;;;8.32;4.10;;;;;;;31.79;43.11;94218.25;5072069;28;20227;-77
2023/07/20 08:07:05;;;;;;;13.27;4.18;;;;;;;31.67;44.39;94233.28;5070480;28;20198;-77
2023/07/20 08:09:32;;;;;;;9.93;4.57;;;;;;;32.04;43.33;94252.69;5072216;28;20214;-78
2023/07/20 08:11:59;;;;;;;12.18;5.20;;;;;;;31.49;44.54;94268.94;5070776;28;20226;-77
2023/07/20 08:14:26;;;;;;;10.00;4.40;;;;;;;30.81;45.74;94283.19;5071029;28;20198;-78
2023/07/20 08:16:55;;;;;;;8.10;3.30;;;;;;;29.64;48.17;94302.78;5070387;28;20677;-78
2023/07/20 08:19:23;;;;;;;10.27;4.15;;;;;;;29.48;49.37;94297.44;5070055;28;20202;-78
2023/07/20 08:21:50;;;;;;;6.25;3.58;;;;;;;29.38;50.03;94295.84;5070391;28;20209;-76
2023/07/20 08:24:18;;;;;;;8.45;3.70;;;;;;;29.28;51.24;94294.19;5070949;28;20225;-75
2023/07/20 08:26:45;;;;;;;11.00;2.75;;;;;;;29.23;50.89;94298.34;5067215;28;20666;-76
2023/07/20 08:29:12;;;;;;;16.33;3.08;;;;;;;28.50;51.01;94303.34;5070329;28;20202;-74
2023/07/20 08:31:39;;;;;;;7.75;2.55;;;;;;;28.05;53.06;94300.88;5069820;28;20226;-77
2023/07/20 08:34:05;;;;;;;7.85;2.20;;;;;;;28.24;51.39;94285.94;5070487;28;20213;-73
2023/07/20 08:36:32;;;;;;;5.10;2.40;;;;;;;27.95;49.65;94302.00;5069425;28;20272;-72
2023/07/20 08:38:59;;;;;;;5.32;2.60;;;;;;;28.08;50.23;94305.53;5070953;28;20214;-73
2023/07/20 08:41:28;;;;;;;6.20;2.53;;;;;;;27.98;48.96;94298.31;5070230;28;20260;-76
2023/07/20 08:43:57;;;;;;;8.75;2.65;;;;;;;28.79;48.55;94292.00;5068731;28;20231;-77
2023/07/20 08:46:27;;;;;;;9.80;2.75;;;;;;;28.97;46.98;94294.91;5070261;28;20195;-79
2023/07/20 08:48:55;;;;;;;6.93;2.20;;;;;;;28.39;46.65;94296.59;5071009;28;20210;-76
2023/07/20 08:51:22;;;;;;;6.68;2.25;;;;;;;27.93;46.95;94293.31;5085467;28;20213;-80
2023/07/20 08:53:52;;;;;;;10.10;2.53;;;;;;;27.93;48.59;94288.53;5070157;28;20289;-76
2023/07/20 08:56:20;;;;;;;7.97;2.80;;;;;;;28.41;47.25;94286.56;5070433;28;20203;-76
2023/07/20 08:58:49;;;;;;;7.90;3.15;;;;;;;28.34;46.70;94291.59;5069321;28;20252;-76
2023/07/20 09:01:18;;;;;;;5.68;1.83;;;;;;;28.05;49.01;94281.38;5072413;28;20216;-73
2023/07/20 09:03:46;;;;;;;7.80;1.83;;;;;;;28.45;46.13;94272.47;5069630;28;20230;-78
2023/07/20 09:06:13;;;;;;;7.28;2.33;;;;;;;28.38;46.18;94261.59;5071795;28;20201;-76
2023/07/20 09:08:40;;;;;;;8.00;2.50;;;;;;;28.33;46.47;94264.94;5069123;28;20222;-77
2023/07/20 09:11:07;;;;;;;5.95;2.33;;;;;;;27.90;47.00;94260.78;5069288;28;20203;-75
2023/07/20 09:13:34;;;;;;;5.20;2.15;;;;;;;28.29;46.77;94260.25;5070655;28;20206;-81
2023/07/20 09:16:03;;;;;;;9.70;2.25;;;;;;;28.15;47.88;94266.31;5071460;28;20203;-79
2023/07/20 09:18:31;;;;;;;4.05;1.70;;;;;;;28.53;47.06;94263.44;5069398;28;20285;-73
2023/07/20 09:21:03;;;;;;;5.85;2.10;;;;;;;28.53;46.95;94262.66;5072199;28;20211;-73
2023/07/20 09:23:34;;;;;;;7.32;2.50;;;;;;;28.97;46.17;94252.31;5073535;28;20207;-77
2023/07/20 09:26:01;;;;;;;7.03;1.90;;;;;;;28.68;46.61;94258.13;5062778;28;20203;-77
2023/07/20 09:28:29;;;;;;;6.47;2.33;;;;;;;28.92;45.76;94245.31;5067158;28;20199;-77
2023/07/20 09:30:58;;;;;;;6.28;2.25;;;;;;;29.62;45.94;94243.81;5069543;28;20205;-79
2023/07/20 09:33:26;;;;;;;8.75;2.40;;;;;;;29.75;45.11;94243.72;5069205;28;20188;-79
2023/07/20 09:35:52;;;;;;;6.40;2.20;;;;;;;29.93;45.13;94248.56;5069995;28;20301;-79
2023/07/20 09:38:20;;;;;;;10.63;2.53;;;;;;;29.95;44.01;94246.06;5070467;28;20283;-78
2023/07/20 09:40:47;;;;;;;6.28;2.15;;;;;;;29.73;42.81;94245.41;5066213;28;20238;-73
2023/07/20 09:43:17;;;;;;;5.30;2.00;;;;;;;29.34;42.98;94239.34;5068717;28;20241;-75
2023/07/20 09:45:44;;;;;;;7.40;2.55;;;;;;;29.34;43.52;94234.53;5069274;28;20367;-79
2023/07/20 09:48:12;;;;;;;4.50;1.90;;;;;;;29.48;42.90;94230.44;5069213;28;20203;-75
2023/07/20 09:50:51;;;;;;;6.93;2.42;;;;;;;29.96;43.38;94228.06;5068670;28;20581;-79
2023/07/20 09:53:19;;;;;;;5.10;2.10;;;;;;;29.96;43.04;94219.69;5069033;28;20195;-74
2023/07/20 09:55:47;;;;;;;8.80;2.00;;;;;;;30.03;42.26;94225.81;5071721;28;20199;-75
2023/07/20 09:58:14;;;;;;;7.78;2.53;;;;;;;30.18;42.75;94209.22;5069225;28;20700;-78
2023/07/20 10:00:46;;;;;;;6.63;2.33;;;;;;;29.84;41.95;94181.50;5069976;28;20201;-72
2023/07/20 10:03:17;;;;;;;4.28;2.28;;;;;;;29.57;43.53;94199.75;5068393;28;20260;-76
2023/07/20 10:05:52;;;;;;;5.80;2.40;;;;;;;29.73;43.13;94200.72;5069798;28;20219;-77
2023/07/20 10:08:21;;;;;;;9.90;2.00;;;;;;;29.47;40.60;94200.19;5068671;28;20194;-72
2023/07/20 10:10:48;;;;;;;6.50;2.20;;;;;;;29.07;41.33;94200.13;5064314;28;20238;-78
2023/07/20 10:13:19;;;;;;;10.38;2.33;;;;;;;29.13;41.67;94209.44;5068219;28;20637;-79
2023/07/20 10:15:51;;;;;;;9.43;2.22;;;;;;;29.30;41.97;94208.00;5073817;28;20195;-79
2023/07/20 10:18:25;;;;;;;9.27;2.17;;;;;;;29.28;41.02;94204.88;5068113;28;20256;-74
2023/07/20 10:20:55;;;;;;;4.35;1.60;;;;;;;29.14;41.39;94213.78;5068381;28;20202;-74
2023/07/20 10:23:23;;;;;;;5.93;1.98;;;;;;;29.21;41.17;94216.31;5067885;28;20499;-76
2023/07/20 10:25:51;;;;;;;6.85;1.70;;;;;;;29.09;42.04;94220.00;5073640;28;20230;-75
2023/07/20 10:28:18;;;;;;;9.32;2.28;;;;;;;28.98;42.33;94228.75;5069799;28;20199;-79
2023/07/20 10:30:45;;;;;;;3.97;1.80;;;;;;;29.32;41.44;94216.69;5075643;28;20669;-73
2023/07/20 10:33:13;;;;;;;8.13;2.63;;;;;;;29.21;42.02;94211.53;5067987;28;20202;-79
2023/07/20 10:35:55;;;;;;;4.50;1.95;;;;;;;29.66;42.24;94205.34;5068209;28;20226;-77
2023/07/20 10:38:40;;;;;;;4.00;2.00;;;;;;;30.13;41.12;94193.06;5068522;28;20195;-77
2023/07/20 10:41:17;;;;;;;4.35;1.88;;;;;;;29.78;41.24;94203.69;5066994;28;20553;-80
2023/07/20 10:43:44;;;;;;;6.07;2.13;;;;;;;29.66;42.45;94210.94;5069422;28;20194;-75
2023/07/20 10:46:12;;;;;;;8.57;2.08;;;;;;;29.87;42.03;94188.97;5065504;28;20199;-77
2023/07/20 10:49:00;;;;;;;3.92;2.22;;;;;;;30.13;41.73;94148.34;5074020;28;20202;-77
2023/07/20 10:51:29;;;;;;;8.00;2.33;;;;;;;30.85;39.65;94115.97;5068233;28;20288;-78
2023/07/20 10:53:58;;;;;;;5.63;2.28;;;;;;;31.19;39.74;94141.97;5070178;28;20819;-78
2023/07/20 10:56:27;;;;;;;6.03;2.08;;;;;;;30.98;40.10;94164.09;5062910;28;20246;-80
2023/07/20 10:58:58;;;;;;;6.90;2.15;;;;;;;31.05;40.63;94158.16;5065324;28;20565;-79
2023/07/20 11:01:29;;;;;;;6.70;2.10;;;;;;;30.69;40.81;94147.06;5073254;28;20281;-74
2023/07/20 11:04:00;;;;;;;8.63;2.55;;;;;;;30.59;41.67;94131.56;5088207;28;20209;-79
2023/07/20 11:06:34;;;;;;;7.03;2.13;;;;;;;30.47;41.70;94129.69;5068338;28;20666;-76
2023/07/20 11:09:10;;;;;;;4.88;2.45;;;;;;;30.63;41.21;94123.78;5081590;28;20202;-79
2023/07/20 11:11:40;;;;;;;8.00;2.67;;;;;;;31.06;39.95;94120.53;5088097;28;20316;-77
2023/07/20 11:14:10;;;;;;;7.63;2.70;;;;;;;30.54;41.32;94121.00;5087443;28;20202;-73
2023/07/20 11:16:39;;;;;;;6.97;3.17;;;;;;;30.91;41.16;94128.03;5067609;28;20203;-79
2023/07/20 11:19:14;;;;;;;7.63;2.60;;;;;;;31.11;40.77;94132.38;5070188;28;20253;-75
2023/07/20 11:21:43;;;;;;;6.18;2.47;;;;;;;30.94;41.57;94129.91;5072208;28;20252;-77
2023/07/20 11:24:11;;;;;;;11.45;2.42;;;;;;;31.30;39.24;94125.44;5091037;28;20206;-74
2023/07/20 11:26:43;;;;;;;7.28;2.75;;;;;;;31.40;40.92;94113.72;5092390;28;20221;-80
2023/07/20 11:29:10;;;;;;;7.88;3.28;;;;;;;31.39;39.36;94114.97;5092014;28;20209;-79
2023/07/20 11:31:38;;;;;;;6.85;2.85;;;;;;;31.70;39.53;94106.28;5092247;28;20238;-78
2023/07/20 11:34:05;;;;;;;4.28;3.20;;;;;;;31.98;39.92;94100.47;5092022;28;20217;-78
2023/07/20 11:36:32;;;;;;;8.27;3.35;;;;;;;31.68;39.47;94103.16;5091599;28;20237;-79